sensor_id;sensor_type;location;lat;lon;timestamp;temperature;humidity
19847;DHT22;10084;50.518;8.588;2024-01-16T00:01:43;2.00;87.70
19847;DHT22;10084;50.518;8.588;2024-01-16T00:04:10;2.00;87.70
19847;DHT22;10084;50.518;8.588;2024-01-16T00:06:42;2.00;87.80
19847;DHT22;10084;50.518;8.588;2024-01-16T00:09:08;2.00;87.70
19847;DHT22;10084;50.518;8.588;2024-01-16T00:11:42;2.10;87.80
19847;DHT22;10084;50.518;8.588;2024-01-16T00:14:09;2.00;87.70
19847;DHT22;10084;50.518;8.588;2024-01-16T00:16:45;2.10;87.70
19847;DHT22;10084;50.518;8.588;2024-01-16T00:19:11;2.00;87.70
19847;DHT22;10084;50.518;8.588;2024-01-16T00:21:44;2.10;87.80
19847;DHT22;10084;50.518;8.588;2024-01-16T00:24:13;2.10;87.80
19847;DHT22;10084;50.518;8.588;2024-01-16T00:26:39;2.10;87.70
19847;DHT22;10084;50.518;8.588;2024-01-16T00:29:05;2.10;87.80
19847;DHT22;10084;50.518;8.588;2024-01-16T00:31:31;2.10;87.80
19847;DHT22;10084;50.518;8.588;2024-01-16T00:33:56;2.10;87.80
19847;DHT22;10084;50.518;8.588;2024-01-16T00:36:22;2.10;87.80
19847;DHT22;10084;50.518;8.588;2024-01-16T00:38:48;2.10;87.80
19847;DHT22;10084;50.518;8.588;2024-01-16T00:41:14;2.10;87.70
19847;DHT22;10084;50.518;8.588;2024-01-16T00:43:44;2.10;87.70
19847;DHT22;10084;50.518;8.588;2024-01-16T00:46:09;2.10;87.70
19847;DHT22;10084;50.518;8.588;2024-01-16T00:48:35;2.10;88.40
19847;DHT22;10084;50.518;8.588;2024-01-16T00:51:01;2.10;87.80
19847;DHT22;10084;50.518;8.588;2024-01-16T00:53:27;2.10;87.90
19847;DHT22;10084;50.518;8.588;2024-01-16T00:55:53;2.10;87.80
19847;DHT22;10084;50.518;8.588;2024-01-16T00:58:23;2.10;87.70
19847;DHT22;10084;50.518;8.588;2024-01-16T01:00:49;2.10;87.80
19847;DHT22;10084;50.518;8.588;2024-01-16T01:03:15;2.10;87.80
19847;DHT22;10084;50.518;8.588;2024-01-16T01:05:41;2.10;87.80
19847;DHT22;10084;50.518;8.588;2024-01-16T01:08:07;2.00;87.80
19847;DHT22;10084;50.518;8.588;2024-01-16T01:10:33;2.00;87.80
19847;DHT22;10084;50.518;8.588;2024-01-16T01:12:59;2.00;87.80
19847;DHT22;10084;50.518;8.588;2024-01-16T01:15:25;2.00;87.80
19847;DHT22;10084;50.518;8.588;2024-01-16T01:17:51;2.00;87.90
19847;DHT22;10084;50.518;8.588;2024-01-16T01:20:18;2.00;87.90
19847;DHT22;10084;50.518;8.588;2024-01-16T01:22:44;2.00;87.80
19847;DHT22;10084;50.518;8.588;2024-01-16T01:25:11;2.00;87.80
19847;DHT22;10084;50.518;8.588;2024-01-16T01:27:40;2.00;87.80
19847;DHT22;10084;50.518;8.588;2024-01-16T01:30:07;2.00;87.90
19847;DHT22;10084;50.518;8.588;2024-01-16T01:32:37;2.00;87.90
19847;DHT22;10084;50.518;8.588;2024-01-16T01:35:03;1.90;87.90
19847;DHT22;10084;50.518;8.588;2024-01-16T01:37:29;2.00;87.90
19847;DHT22;10084;50.518;8.588;2024-01-16T01:39:55;1.90;87.80
19847;DHT22;10084;50.518;8.588;2024-01-16T01:42:20;1.90;87.90
19847;DHT22;10084;50.518;8.588;2024-01-16T01:44:46;2.00;87.90
19847;DHT22;10084;50.518;8.588;2024-01-16T01:47:12;1.90;87.90
19847;DHT22;10084;50.518;8.588;2024-01-16T01:49:38;2.00;88.00
19847;DHT22;10084;50.518;8.588;2024-01-16T01:52:05;2.00;88.00
19847;DHT22;10084;50.518;8.588;2024-01-16T01:54:32;2.00;88.00
19847;DHT22;10084;50.518;8.588;2024-01-16T01:57:01;2.00;88.00
19847;DHT22;10084;50.518;8.588;2024-01-16T01:59:28;2.00;88.00
19847;DHT22;10084;50.518;8.588;2024-01-16T02:01:54;2.00;88.00
19847;DHT22;10084;50.518;8.588;2024-01-16T02:04:21;2.00;87.90
19847;DHT22;10084;50.518;8.588;2024-01-16T02:06:48;2.00;87.90
19847;DHT22;10084;50.518;8.588;2024-01-16T02:09:13;2.00;87.90
19847;DHT22;10084;50.518;8.588;2024-01-16T02:11:42;2.00;87.90
19847;DHT22;10084;50.518;8.588;2024-01-16T02:14:09;2.00;87.90
19847;DHT22;10084;50.518;8.588;2024-01-16T02:16:36;2.00;87.90
19847;DHT22;10084;50.518;8.588;2024-01-16T02:19:04;2.00;87.80
19847;DHT22;10084;50.518;8.588;2024-01-16T02:21:39;2.00;87.80
19847;DHT22;10084;50.518;8.588;2024-01-16T02:24:07;2.00;87.80
19847;DHT22;10084;50.518;8.588;2024-01-16T02:26:33;2.00;87.80
19847;DHT22;10084;50.518;8.588;2024-01-16T02:29:01;2.00;87.70
19847;DHT22;10084;50.518;8.588;2024-01-16T02:31:27;2.00;87.70
19847;DHT22;10084;50.518;8.588;2024-01-16T02:33:53;2.00;87.60
19847;DHT22;10084;50.518;8.588;2024-01-16T02:36:19;2.00;87.70
19847;DHT22;10084;50.518;8.588;2024-01-16T02:38:44;1.90;88.30
19847;DHT22;10084;50.518;8.588;2024-01-16T02:41:13;1.90;87.80
19847;DHT22;10084;50.518;8.588;2024-01-16T02:43:39;1.90;87.80
19847;DHT22;10084;50.518;8.588;2024-01-16T02:46:05;1.90;87.80
19847;DHT22;10084;50.518;8.588;2024-01-16T02:48:30;1.90;87.90
19847;DHT22;10084;50.518;8.588;2024-01-16T02:50:56;1.90;87.90
19847;DHT22;10084;50.518;8.588;2024-01-16T02:53:21;1.90;87.90
19847;DHT22;10084;50.518;8.588;2024-01-16T02:55:47;1.90;88.00
19847;DHT22;10084;50.518;8.588;2024-01-16T02:58:13;1.90;88.00
19847;DHT22;10084;50.518;8.588;2024-01-16T03:00:38;1.90;88.00
19847;DHT22;10084;50.518;8.588;2024-01-16T03:03:04;1.90;88.10
19847;DHT22;10084;50.518;8.588;2024-01-16T03:05:30;1.90;88.10
19847;DHT22;10084;50.518;8.588;2024-01-16T03:07:56;2.00;88.10
19847;DHT22;10084;50.518;8.588;2024-01-16T03:10:21;2.00;88.10
19847;DHT22;10084;50.518;8.588;2024-01-16T03:12:47;2.00;88.10
19847;DHT22;10084;50.518;8.588;2024-01-16T03:15:13;2.00;88.10
19847;DHT22;10084;50.518;8.588;2024-01-16T03:17:38;2.00;88.00
19847;DHT22;10084;50.518;8.588;2024-01-16T03:20:04;2.00;88.00
19847;DHT22;10084;50.518;8.588;2024-01-16T03:22:30;2.00;88.00
19847;DHT22;10084;50.518;8.588;2024-01-16T03:24:56;2.00;88.00
19847;DHT22;10084;50.518;8.588;2024-01-16T03:27:22;2.00;88.00
19847;DHT22;10084;50.518;8.588;2024-01-16T03:29:48;2.00;88.00
19847;DHT22;10084;50.518;8.588;2024-01-16T03:32:13;2.00;88.00
19847;DHT22;10084;50.518;8.588;2024-01-16T03:34:39;2.10;88.10
19847;DHT22;10084;50.518;8.588;2024-01-16T03:37:05;2.10;88.10
19847;DHT22;10084;50.518;8.588;2024-01-16T03:39:31;2.10;88.70
19847;DHT22;10084;50.518;8.588;2024-01-16T03:41:57;2.10;88.10
19847;DHT22;10084;50.518;8.588;2024-01-16T03:44:22;2.10;88.10
19847;DHT22;10084;50.518;8.588;2024-01-16T03:46:48;2.10;88.20
19847;DHT22;10084;50.518;8.588;2024-01-16T03:49:14;2.10;88.20
19847;DHT22;10084;50.518;8.588;2024-01-16T03:51:40;2.10;88.20
19847;DHT22;10084;50.518;8.588;2024-01-16T03:54:09;2.10;88.10
19847;DHT22;10084;50.518;8.588;2024-01-16T03:56:35;2.10;88.10
19847;DHT22;10084;50.518;8.588;2024-01-16T03:59:01;2.10;88.20
19847;DHT22;10084;50.518;8.588;2024-01-16T04:01:30;2.10;88.20
19847;DHT22;10084;50.518;8.588;2024-01-16T04:03:57;2.10;88.20
19847;DHT22;10084;50.518;8.588;2024-01-16T04:06:23;2.10;88.20
19847;DHT22;10084;50.518;8.588;2024-01-16T04:08:48;2.10;88.20
19847;DHT22;10084;50.518;8.588;2024-01-16T04:11:14;2.10;88.20
19847;DHT22;10084;50.518;8.588;2024-01-16T04:13:40;2.10;88.20
19847;DHT22;10084;50.518;8.588;2024-01-16T04:16:06;2.10;88.20
19847;DHT22;10084;50.518;8.588;2024-01-16T04:18:36;2.20;88.30
19847;DHT22;10084;50.518;8.588;2024-01-16T04:21:03;2.20;88.30
19847;DHT22;10084;50.518;8.588;2024-01-16T04:23:29;2.20;88.20
19847;DHT22;10084;50.518;8.588;2024-01-16T04:25:54;2.20;88.20
19847;DHT22;10084;50.518;8.588;2024-01-16T04:28:20;2.20;88.20
19847;DHT22;10084;50.518;8.588;2024-01-16T04:30:46;2.20;88.20
19847;DHT22;10084;50.518;8.588;2024-01-16T04:33:11;2.20;88.20
19847;DHT22;10084;50.518;8.588;2024-01-16T04:35:37;2.20;88.20
19847;DHT22;10084;50.518;8.588;2024-01-16T04:38:03;2.20;88.10
19847;DHT22;10084;50.518;8.588;2024-01-16T04:40:29;2.20;88.10
19847;DHT22;10084;50.518;8.588;2024-01-16T04:42:55;2.20;88.10
19847;DHT22;10084;50.518;8.588;2024-01-16T04:45:20;2.20;88.10
19847;DHT22;10084;50.518;8.588;2024-01-16T04:47:46;2.20;88.00
19847;DHT22;10084;50.518;8.588;2024-01-16T04:50:12;2.20;88.00
19847;DHT22;10084;50.518;8.588;2024-01-16T04:52:37;2.20;88.00
19847;DHT22;10084;50.518;8.588;2024-01-16T04:55:04;2.20;88.10
19847;DHT22;10084;50.518;8.588;2024-01-16T04:57:29;2.20;88.10
19847;DHT22;10084;50.518;8.588;2024-01-16T04:59:56;2.20;88.10
19847;DHT22;10084;50.518;8.588;2024-01-16T05:02:22;2.20;88.20
19847;DHT22;10084;50.518;8.588;2024-01-16T05:04:48;2.20;88.10
19847;DHT22;10084;50.518;8.588;2024-01-16T05:07:15;2.20;88.10
19847;DHT22;10084;50.518;8.588;2024-01-16T05:09:41;2.20;88.10
19847;DHT22;10084;50.518;8.588;2024-01-16T05:12:06;2.20;88.10
19847;DHT22;10084;50.518;8.588;2024-01-16T05:14:32;2.20;88.00
19847;DHT22;10084;50.518;8.588;2024-01-16T05:16:58;2.20;88.00
19847;DHT22;10084;50.518;8.588;2024-01-16T05:19:23;2.20;88.00
19847;DHT22;10084;50.518;8.588;2024-01-16T05:21:49;2.20;87.90
19847;DHT22;10084;50.518;8.588;2024-01-16T05:24:15;2.20;88.00
19847;DHT22;10084;50.518;8.588;2024-01-16T05:26:41;2.20;88.10
19847;DHT22;10084;50.518;8.588;2024-01-16T05:29:06;2.20;88.00
19847;DHT22;10084;50.518;8.588;2024-01-16T05:31:32;2.20;88.00
19847;DHT22;10084;50.518;8.588;2024-01-16T05:33:58;2.20;88.00
19847;DHT22;10084;50.518;8.588;2024-01-16T05:36:23;2.20;87.90
19847;DHT22;10084;50.518;8.588;2024-01-16T05:38:50;2.10;87.90
19847;DHT22;10084;50.518;8.588;2024-01-16T05:41:16;2.10;87.90
19847;DHT22;10084;50.518;8.588;2024-01-16T05:43:41;2.10;87.90
19847;DHT22;10084;50.518;8.588;2024-01-16T05:46:07;2.10;87.90
19847;DHT22;10084;50.518;8.588;2024-01-16T05:48:33;2.10;87.90
19847;DHT22;10084;50.518;8.588;2024-01-16T05:50:58;2.10;87.90
19847;DHT22;10084;50.518;8.588;2024-01-16T05:53:24;2.10;88.00
19847;DHT22;10084;50.518;8.588;2024-01-16T05:55:50;2.10;88.00
19847;DHT22;10084;50.518;8.588;2024-01-16T05:58:15;2.00;88.00
19847;DHT22;10084;50.518;8.588;2024-01-16T06:00:41;2.10;88.00
19847;DHT22;10084;50.518;8.588;2024-01-16T06:03:07;2.10;88.00
19847;DHT22;10084;50.518;8.588;2024-01-16T06:05:32;2.10;88.00
19847;DHT22;10084;50.518;8.588;2024-01-16T06:07:58;2.10;87.90
19847;DHT22;10084;50.518;8.588;2024-01-16T06:10:23;2.00;87.90
19847;DHT22;10084;50.518;8.588;2024-01-16T06:12:49;2.00;88.00
19847;DHT22;10084;50.518;8.588;2024-01-16T06:15:15;2.00;88.00
19847;DHT22;10084;50.518;8.588;2024-01-16T06:17:40;2.00;88.00
19847;DHT22;10084;50.518;8.588;2024-01-16T06:20:06;2.00;88.00
19847;DHT22;10084;50.518;8.588;2024-01-16T06:22:32;2.00;88.10
19847;DHT22;10084;50.518;8.588;2024-01-16T06:24:58;2.00;88.10
19847;DHT22;10084;50.518;8.588;2024-01-16T06:27:23;2.00;88.00
19847;DHT22;10084;50.518;8.588;2024-01-16T06:29:49;2.00;88.00
19847;DHT22;10084;50.518;8.588;2024-01-16T06:32:16;1.90;87.90
19847;DHT22;10084;50.518;8.588;2024-01-16T06:34:42;1.90;87.90
19847;DHT22;10084;50.518;8.588;2024-01-16T06:37:08;1.90;88.00
19847;DHT22;10084;50.518;8.588;2024-01-16T06:39:34;1.90;88.00
19847;DHT22;10084;50.518;8.588;2024-01-16T06:42:01;1.90;88.00
19847;DHT22;10084;50.518;8.588;2024-01-16T06:44:26;1.90;88.00
19847;DHT22;10084;50.518;8.588;2024-01-16T06:46:52;1.90;88.00
19847;DHT22;10084;50.518;8.588;2024-01-16T06:49:17;1.90;88.00
19847;DHT22;10084;50.518;8.588;2024-01-16T06:51:43;1.90;88.00
19847;DHT22;10084;50.518;8.588;2024-01-16T06:54:09;1.90;87.90
19847;DHT22;10084;50.518;8.588;2024-01-16T06:56:34;1.80;88.00
19847;DHT22;10084;50.518;8.588;2024-01-16T06:59:00;1.80;87.90
19847;DHT22;10084;50.518;8.588;2024-01-16T07:01:26;1.80;88.00
19847;DHT22;10084;50.518;8.588;2024-01-16T07:03:52;1.80;87.50
19847;DHT22;10084;50.518;8.588;2024-01-16T07:06:18;1.80;87.60
19847;DHT22;10084;50.518;8.588;2024-01-16T07:08:43;1.80;87.70
19847;DHT22;10084;50.518;8.588;2024-01-16T07:11:10;1.80;87.60
19847;DHT22;10084;50.518;8.588;2024-01-16T07:13:39;1.80;87.60
19847;DHT22;10084;50.518;8.588;2024-01-16T07:16:08;1.90;87.60
19847;DHT22;10084;50.518;8.588;2024-01-16T07:18:34;1.90;87.60
19847;DHT22;10084;50.518;8.588;2024-01-16T07:21:00;1.90;87.50
19847;DHT22;10084;50.518;8.588;2024-01-16T07:23:25;1.90;87.60
19847;DHT22;10084;50.518;8.588;2024-01-16T07:25:51;1.90;87.50
19847;DHT22;10084;50.518;8.588;2024-01-16T07:28:17;1.90;87.50
19847;DHT22;10084;50.518;8.588;2024-01-16T07:30:42;1.90;87.50
19847;DHT22;10084;50.518;8.588;2024-01-16T07:33:08;1.90;87.40
19847;DHT22;10084;50.518;8.588;2024-01-16T07:35:34;2.00;87.50
19847;DHT22;10084;50.518;8.588;2024-01-16T07:37:59;2.00;87.40
19847;DHT22;10084;50.518;8.588;2024-01-16T07:40:25;2.00;87.40
19847;DHT22;10084;50.518;8.588;2024-01-16T07:42:51;2.00;87.40
19847;DHT22;10084;50.518;8.588;2024-01-16T07:45:17;2.00;87.40
19847;DHT22;10084;50.518;8.588;2024-01-16T07:47:42;2.00;87.40
19847;DHT22;10084;50.518;8.588;2024-01-16T07:50:08;2.00;87.50
19847;DHT22;10084;50.518;8.588;2024-01-16T07:52:34;2.00;87.40
19847;DHT22;10084;50.518;8.588;2024-01-16T07:55:00;2.00;87.50
19847;DHT22;10084;50.518;8.588;2024-01-16T07:57:25;2.00;87.40
19847;DHT22;10084;50.518;8.588;2024-01-16T07:59:51;2.00;87.40
19847;DHT22;10084;50.518;8.588;2024-01-16T08:02:16;2.00;87.40
19847;DHT22;10084;50.518;8.588;2024-01-16T08:04:42;2.00;87.40
19847;DHT22;10084;50.518;8.588;2024-01-16T08:07:08;2.00;87.30
19847;DHT22;10084;50.518;8.588;2024-01-16T08:09:34;2.00;87.30
19847;DHT22;10084;50.518;8.588;2024-01-16T08:12:00;2.00;87.40
19847;DHT22;10084;50.518;8.588;2024-01-16T08:14:28;2.10;87.50
19847;DHT22;10084;50.518;8.588;2024-01-16T08:16:54;2.10;87.50
19847;DHT22;10084;50.518;8.588;2024-01-16T08:19:20;2.20;87.60
19847;DHT22;10084;50.518;8.588;2024-01-16T08:21:45;2.20;87.70
19847;DHT22;10084;50.518;8.588;2024-01-16T08:24:11;2.30;87.60
19847;DHT22;10084;50.518;8.588;2024-01-16T08:26:37;2.40;87.50
19847;DHT22;10084;50.518;8.588;2024-01-16T08:29:03;2.50;87.50
19847;DHT22;10084;50.518;8.588;2024-01-16T08:31:30;2.50;87.30
19847;DHT22;10084;50.518;8.588;2024-01-16T08:33:56;2.60;87.20
19847;DHT22;10084;50.518;8.588;2024-01-16T08:36:23;2.60;87.10
19847;DHT22;10084;50.518;8.588;2024-01-16T08:38:48;2.60;87.00
19847;DHT22;10084;50.518;8.588;2024-01-16T08:41:14;2.60;86.90
19847;DHT22;10084;50.518;8.588;2024-01-16T08:43:40;2.60;86.90
19847;DHT22;10084;50.518;8.588;2024-01-16T08:46:05;2.60;86.90
19847;DHT22;10084;50.518;8.588;2024-01-16T08:48:32;2.60;87.00
19847;DHT22;10084;50.518;8.588;2024-01-16T08:50:58;2.60;87.00
19847;DHT22;10084;50.518;8.588;2024-01-16T08:53:24;2.70;86.90
19847;DHT22;10084;50.518;8.588;2024-01-16T08:55:50;2.70;86.90
19847;DHT22;10084;50.518;8.588;2024-01-16T08:58:15;2.70;86.80
19847;DHT22;10084;50.518;8.588;2024-01-16T09:00:41;2.70;86.80
19847;DHT22;10084;50.518;8.588;2024-01-16T09:03:06;2.70;86.80
19847;DHT22;10084;50.518;8.588;2024-01-16T09:05:33;2.70;86.70
19847;DHT22;10084;50.518;8.588;2024-01-16T09:08:04;2.70;86.70
19847;DHT22;10084;50.518;8.588;2024-01-16T09:10:29;2.70;86.80
19847;DHT22;10084;50.518;8.588;2024-01-16T09:12:55;2.70;86.80
19847;DHT22;10084;50.518;8.588;2024-01-16T09:15:21;2.80;86.80
19847;DHT22;10084;50.518;8.588;2024-01-16T09:17:47;2.80;86.70
19847;DHT22;10084;50.518;8.588;2024-01-16T09:20:13;2.80;86.70
19847;DHT22;10084;50.518;8.588;2024-01-16T09:22:38;2.90;86.80
19847;DHT22;10084;50.518;8.588;2024-01-16T09:25:04;2.90;86.80
19847;DHT22;10084;50.518;8.588;2024-01-16T09:27:30;3.00;86.80
19847;DHT22;10084;50.518;8.588;2024-01-16T09:29:56;3.00;86.70
19847;DHT22;10084;50.518;8.588;2024-01-16T09:32:22;3.10;86.70
19847;DHT22;10084;50.518;8.588;2024-01-16T09:34:47;3.10;86.70
19847;DHT22;10084;50.518;8.588;2024-01-16T09:37:13;3.20;86.50
19847;DHT22;10084;50.518;8.588;2024-01-16T09:39:43;3.20;86.50
19847;DHT22;10084;50.518;8.588;2024-01-16T09:42:08;3.20;86.40
19847;DHT22;10084;50.518;8.588;2024-01-16T09:44:34;3.30;86.50
19847;DHT22;10084;50.518;8.588;2024-01-16T09:47:01;3.30;86.50
19847;DHT22;10084;50.518;8.588;2024-01-16T09:49:29;3.40;86.50
19847;DHT22;10084;50.518;8.588;2024-01-16T09:51:55;3.50;86.50
19847;DHT22;10084;50.518;8.588;2024-01-16T09:54:21;3.50;86.40
19847;DHT22;10084;50.518;8.588;2024-01-16T09:56:49;3.60;86.30
19847;DHT22;10084;50.518;8.588;2024-01-16T09:59:17;3.70;86.20
19847;DHT22;10084;50.518;8.588;2024-01-16T10:01:45;3.70;86.00
19847;DHT22;10084;50.518;8.588;2024-01-16T10:04:11;3.80;86.00
19847;DHT22;10084;50.518;8.588;2024-01-16T10:06:37;3.80;85.90
19847;DHT22;10084;50.518;8.588;2024-01-16T10:09:03;3.90;85.90
19847;DHT22;10084;50.518;8.588;2024-01-16T10:11:30;3.90;85.70
19847;DHT22;10084;50.518;8.588;2024-01-16T10:13:58;3.90;85.70
19847;DHT22;10084;50.518;8.588;2024-01-16T10:17:00;4.00;85.80
19847;DHT22;10084;50.518;8.588;2024-01-16T10:19:31;4.00;85.60
19847;DHT22;10084;50.518;8.588;2024-01-16T10:22:04;4.00;85.40
19847;DHT22;10084;50.518;8.588;2024-01-16T10:24:30;4.00;85.40
19847;DHT22;10084;50.518;8.588;2024-01-16T10:27:01;4.00;85.30
19847;DHT22;10084;50.518;8.588;2024-01-16T10:29:28;4.00;85.20
19847;DHT22;10084;50.518;8.588;2024-01-16T10:31:55;4.00;85.00
19847;DHT22;10084;50.518;8.588;2024-01-16T10:34:22;4.00;84.90
19847;DHT22;10084;50.518;8.588;2024-01-16T10:36:51;3.90;84.80
19847;DHT22;10084;50.518;8.588;2024-01-16T10:39:18;3.90;84.60
19847;DHT22;10084;50.518;8.588;2024-01-16T10:42:00;3.90;84.60
19847;DHT22;10084;50.518;8.588;2024-01-16T10:44:26;3.80;84.70
19847;DHT22;10084;50.518;8.588;2024-01-16T10:47:10;3.80;84.80
19847;DHT22;10084;50.518;8.588;2024-01-16T10:49:37;3.70;84.90
19847;DHT22;10084;50.518;8.588;2024-01-16T10:52:06;3.80;85.00
19847;DHT22;10084;50.518;8.588;2024-01-16T10:54:36;3.90;85.00
19847;DHT22;10084;50.518;8.588;2024-01-16T10:57:03;3.90;84.80
19847;DHT22;10084;50.518;8.588;2024-01-16T10:59:50;3.90;84.70
19847;DHT22;10084;50.518;8.588;2024-01-16T11:02:24;3.90;84.70
19847;DHT22;10084;50.518;8.588;2024-01-16T11:04:54;3.90;84.60
19847;DHT22;10084;50.518;8.588;2024-01-16T11:07:21;4.00;84.60
19847;DHT22;10084;50.518;8.588;2024-01-16T11:09:48;4.00;84.60
19847;DHT22;10084;50.518;8.588;2024-01-16T11:12:15;4.10;84.60
19847;DHT22;10084;50.518;8.588;2024-01-16T11:14:45;4.10;84.50
19847;DHT22;10084;50.518;8.588;2024-01-16T11:17:13;4.20;84.50
19847;DHT22;10084;50.518;8.588;2024-01-16T11:19:44;4.30;84.40
19847;DHT22;10084;50.518;8.588;2024-01-16T11:22:11;4.40;84.40
19847;DHT22;10084;50.518;8.588;2024-01-16T11:24:36;4.50;84.20
19847;DHT22;10084;50.518;8.588;2024-01-16T11:27:02;4.50;84.00
19847;DHT22;10084;50.518;8.588;2024-01-16T11:31:55;4.60;84.00
19847;DHT22;10084;50.518;8.588;2024-01-16T11:37:11;4.90;84.00
19847;DHT22;10084;50.518;8.588;2024-01-16T11:39:37;4.90;83.80
19847;DHT22;10084;50.518;8.588;2024-01-16T11:42:03;5.00;83.70
19847;DHT22;10084;50.518;8.588;2024-01-16T11:44:48;5.10;83.80
19847;DHT22;10084;50.518;8.588;2024-01-16T11:47:17;5.30;83.80
19847;DHT22;10084;50.518;8.588;2024-01-16T11:49:45;5.40;83.50
19847;DHT22;10084;50.518;8.588;2024-01-16T11:52:11;5.40;83.00
19847;DHT22;10084;50.518;8.588;2024-01-16T11:54:41;5.40;82.70
19847;DHT22;10084;50.518;8.588;2024-01-16T11:57:25;5.30;83.40
19847;DHT22;10084;50.518;8.588;2024-01-16T12:00:03;5.30;82.70
19847;DHT22;10084;50.518;8.588;2024-01-16T12:02:54;5.30;82.80
19847;DHT22;10084;50.518;8.588;2024-01-16T12:05:21;5.40;82.80
19847;DHT22;10084;50.518;8.588;2024-01-16T12:07:49;5.40;82.80
19847;DHT22;10084;50.518;8.588;2024-01-16T12:10:20;5.50;82.90
19847;DHT22;10084;50.518;8.588;2024-01-16T12:12:47;5.60;83.00
19847;DHT22;10084;50.518;8.588;2024-01-16T12:15:14;5.80;83.00
19847;DHT22;10084;50.518;8.588;2024-01-16T12:20:18;6.10;83.20
19847;DHT22;10084;50.518;8.588;2024-01-16T12:22:44;6.30;83.20
19847;DHT22;10084;50.518;8.588;2024-01-16T12:25:10;6.50;83.10
19847;DHT22;10084;50.518;8.588;2024-01-16T12:27:37;6.70;83.50
19847;DHT22;10084;50.518;8.588;2024-01-16T12:30:09;7.00;83.70
19847;DHT22;10084;50.518;8.588;2024-01-16T12:32:35;7.30;83.50
19847;DHT22;10084;50.518;8.588;2024-01-16T12:35:01;7.60;83.10
19847;DHT22;10084;50.518;8.588;2024-01-16T12:37:26;7.80;82.90
19847;DHT22;10084;50.518;8.588;2024-01-16T12:39:52;8.10;83.00
19847;DHT22;10084;50.518;8.588;2024-01-16T12:42:18;8.60;83.50
19847;DHT22;10084;50.518;8.588;2024-01-16T12:44:44;9.20;83.40
19847;DHT22;10084;50.518;8.588;2024-01-16T12:47:15;9.70;82.70
19847;DHT22;10084;50.518;8.588;2024-01-16T12:49:41;10.20;81.70
19847;DHT22;10084;50.518;8.588;2024-01-16T12:52:18;10.50;81.40
19847;DHT22;10084;50.518;8.588;2024-01-16T12:54:44;10.40;79.60
19847;DHT22;10084;50.518;8.588;2024-01-16T12:57:10;10.20;78.70
19847;DHT22;10084;50.518;8.588;2024-01-16T12:59:41;9.80;78.30
19847;DHT22;10084;50.518;8.588;2024-01-16T13:02:07;9.30;78.10
19847;DHT22;10084;50.518;8.588;2024-01-16T13:04:33;8.90;78.20
19847;DHT22;10084;50.518;8.588;2024-01-16T13:07:05;8.50;78.20
19847;DHT22;10084;50.518;8.588;2024-01-16T13:09:31;8.20;78.60
19847;DHT22;10084;50.518;8.588;2024-01-16T13:11:57;8.20;79.60
19847;DHT22;10084;50.518;8.588;2024-01-16T13:14:24;8.10;79.30
19847;DHT22;10084;50.518;8.588;2024-01-16T13:16:51;8.10;79.20
19847;DHT22;10084;50.518;8.588;2024-01-16T13:19:18;8.20;79.40
19847;DHT22;10084;50.518;8.588;2024-01-16T13:21:45;8.40;79.30
19847;DHT22;10084;50.518;8.588;2024-01-16T13:24:11;8.70;79.00
19847;DHT22;10084;50.518;8.588;2024-01-16T13:26:39;9.00;78.50
19847;DHT22;10084;50.518;8.588;2024-01-16T13:29:05;9.20;77.80
19847;DHT22;10084;50.518;8.588;2024-01-16T13:31:34;9.50;77.40
19847;DHT22;10084;50.518;8.588;2024-01-16T13:34:00;9.70;76.80
19847;DHT22;10084;50.518;8.588;2024-01-16T13:36:26;9.80;76.50
19847;DHT22;10084;50.518;8.588;2024-01-16T13:38:52;10.00;76.10
19847;DHT22;10084;50.518;8.588;2024-01-16T13:41:17;10.20;75.70
19847;DHT22;10084;50.518;8.588;2024-01-16T13:43:43;10.30;75.10
19847;DHT22;10084;50.518;8.588;2024-01-16T13:46:09;10.40;74.50
19847;DHT22;10084;50.518;8.588;2024-01-16T13:48:36;10.40;73.80
19847;DHT22;10084;50.518;8.588;2024-01-16T13:51:02;10.30;73.20
19847;DHT22;10084;50.518;8.588;2024-01-16T13:53:30;10.20;72.70
19847;DHT22;10084;50.518;8.588;2024-01-16T13:55:55;9.90;72.40
19847;DHT22;10084;50.518;8.588;2024-01-16T13:58:21;9.60;72.50
19847;DHT22;10084;50.518;8.588;2024-01-16T14:00:47;9.30;72.60
19847;DHT22;10084;50.518;8.588;2024-01-16T14:03:12;9.00;73.00
19847;DHT22;10084;50.518;8.588;2024-01-16T14:05:38;8.80;73.20
19847;DHT22;10084;50.518;8.588;2024-01-16T14:08:07;8.50;73.40
19847;DHT22;10084;50.518;8.588;2024-01-16T14:10:34;8.30;73.80
19847;DHT22;10084;50.518;8.588;2024-01-16T14:12:59;8.10;74.00
19847;DHT22;10084;50.518;8.588;2024-01-16T14:15:25;7.80;74.20
19847;DHT22;10084;50.518;8.588;2024-01-16T14:17:54;7.50;74.40
19847;DHT22;10084;50.518;8.588;2024-01-16T14:20:22;7.30;74.80
19847;DHT22;10084;50.518;8.588;2024-01-16T14:22:53;6.90;74.90
19847;DHT22;10084;50.518;8.588;2024-01-16T14:25:19;6.60;75.10
19847;DHT22;10084;50.518;8.588;2024-01-16T14:27:55;6.40;75.50
19847;DHT22;10084;50.518;8.588;2024-01-16T14:30:21;6.20;75.90
19847;DHT22;10084;50.518;8.588;2024-01-16T14:32:46;6.00;76.10
19847;DHT22;10084;50.518;8.588;2024-01-16T14:35:13;5.90;76.30
19847;DHT22;10084;50.518;8.588;2024-01-16T14:37:40;5.70;76.40
19847;DHT22;10084;50.518;8.588;2024-01-16T14:40:06;5.70;76.60
19847;DHT22;10084;50.518;8.588;2024-01-16T14:42:41;5.50;76.50
19847;DHT22;10084;50.518;8.588;2024-01-16T14:45:08;5.50;76.60
19847;DHT22;10084;50.518;8.588;2024-01-16T14:47:36;5.40;76.60
19847;DHT22;10084;50.518;8.588;2024-01-16T14:50:03;5.30;76.50
19847;DHT22;10084;50.518;8.588;2024-01-16T14:52:32;5.20;76.70
19847;DHT22;10084;50.518;8.588;2024-01-16T14:54:59;5.10;76.80
19847;DHT22;10084;50.518;8.588;2024-01-16T14:57:26;5.10;76.80
19847;DHT22;10084;50.518;8.588;2024-01-16T14:59:53;5.00;76.80
19847;DHT22;10084;50.518;8.588;2024-01-16T15:02:19;4.90;76.70
19847;DHT22;10084;50.518;8.588;2024-01-16T15:04:46;4.90;76.70
19847;DHT22;10084;50.518;8.588;2024-01-16T15:07:14;4.80;76.80
19847;DHT22;10084;50.518;8.588;2024-01-16T15:09:40;4.70;76.90
19847;DHT22;10084;50.518;8.588;2024-01-16T15:12:09;4.60;77.00
19847;DHT22;10084;50.518;8.588;2024-01-16T15:14:35;4.60;77.00
19847;DHT22;10084;50.518;8.588;2024-01-16T15:17:02;4.50;77.00
19847;DHT22;10084;50.518;8.588;2024-01-16T15:19:28;4.40;77.10
19847;DHT22;10084;50.518;8.588;2024-01-16T15:21:54;4.40;77.20
19847;DHT22;10084;50.518;8.588;2024-01-16T15:24:20;4.30;77.20
19847;DHT22;10084;50.518;8.588;2024-01-16T15:26:55;4.30;77.30
19847;DHT22;10084;50.518;8.588;2024-01-16T15:29:24;4.20;77.30
19847;DHT22;10084;50.518;8.588;2024-01-16T15:31:51;4.20;77.30
19847;DHT22;10084;50.518;8.588;2024-01-16T15:34:22;4.10;77.50
19847;DHT22;10084;50.518;8.588;2024-01-16T15:36:47;4.00;77.50
19847;DHT22;10084;50.518;8.588;2024-01-16T15:39:14;4.00;77.60
19847;DHT22;10084;50.518;8.588;2024-01-16T15:41:43;3.90;77.60
19847;DHT22;10084;50.518;8.588;2024-01-16T15:44:10;3.80;77.60
19847;DHT22;10084;50.518;8.588;2024-01-16T15:46:55;3.80;77.60
19847;DHT22;10084;50.518;8.588;2024-01-16T15:49:21;3.70;77.60
19847;DHT22;10084;50.518;8.588;2024-01-16T15:51:46;3.50;77.60